sensor_id;sensor_type;location;lat;lon;timestamp;temperature;humidity
20487;DHT22;10402;49.012;8.370;2023-10-31T00:01:12;14.00;99.90
20487;DHT22;10402;49.012;8.370;2023-10-31T00:03:38;14.00;99.90
20487;DHT22;10402;49.012;8.370;2023-10-31T00:06:06;14.00;99.70
20487;DHT22;10402;49.012;8.370;2023-10-31T00:08:31;14.00;99.60
20487;DHT22;10402;49.012;8.370;2023-10-31T00:10:57;13.90;99.50
20487;DHT22;10402;49.012;8.370;2023-10-31T00:13:22;13.90;99.40
20487;DHT22;10402;49.012;8.370;2023-10-31T00:15:48;13.90;99.30
20487;DHT22;10402;49.012;8.370;2023-10-31T00:18:14;13.80;99.20
20487;DHT22;10402;49.012;8.370;2023-10-31T00:20:39;13.80;99.20
20487;DHT22;10402;49.012;8.370;2023-10-31T00:23:05;13.70;99.10
20487;DHT22;10402;49.012;8.370;2023-10-31T00:25:30;13.70;98.90
20487;DHT22;10402;49.012;8.370;2023-10-31T00:27:56;13.70;98.90
20487;DHT22;10402;49.012;8.370;2023-10-31T00:30:21;13.70;98.80
20487;DHT22;10402;49.012;8.370;2023-10-31T00:32:47;13.70;98.70
20487;DHT22;10402;49.012;8.370;2023-10-31T00:35:12;13.70;98.60
20487;DHT22;10402;49.012;8.370;2023-10-31T00:37:38;13.60;98.50
20487;DHT22;10402;49.012;8.370;2023-10-31T00:40:08;13.60;98.60
20487;DHT22;10402;49.012;8.370;2023-10-31T00:42:39;13.50;98.50
20487;DHT22;10402;49.012;8.370;2023-10-31T00:45:07;13.50;98.40
20487;DHT22;10402;49.012;8.370;2023-10-31T00:47:33;13.60;98.50
20487;DHT22;10402;49.012;8.370;2023-10-31T00:49:59;13.60;98.40
20487;DHT22;10402;49.012;8.370;2023-10-31T00:52:24;13.50;98.30
20487;DHT22;10402;49.012;8.370;2023-10-31T00:54:50;13.50;98.20
20487;DHT22;10402;49.012;8.370;2023-10-31T00:57:15;13.50;98.30
20487;DHT22;10402;49.012;8.370;2023-10-31T00:59:41;13.50;98.20
20487;DHT22;10402;49.012;8.370;2023-10-31T01:02:06;13.50;98.10
20487;DHT22;10402;49.012;8.370;2023-10-31T01:04:32;13.50;97.90
20487;DHT22;10402;49.012;8.370;2023-10-31T01:06:57;13.40;97.90
20487;DHT22;10402;49.012;8.370;2023-10-31T01:09:23;13.40;98.00
20487;DHT22;10402;49.012;8.370;2023-10-31T01:11:49;13.40;97.90
20487;DHT22;10402;49.012;8.370;2023-10-31T01:14:14;13.40;97.90
20487;DHT22;10402;49.012;8.370;2023-10-31T01:16:40;13.40;97.80
20487;DHT22;10402;49.012;8.370;2023-10-31T01:19:06;13.40;97.70
20487;DHT22;10402;49.012;8.370;2023-10-31T01:21:32;13.40;97.70
20487;DHT22;10402;49.012;8.370;2023-10-31T01:23:59;13.40;97.60
20487;DHT22;10402;49.012;8.370;2023-10-31T01:26:25;13.40;97.60
20487;DHT22;10402;49.012;8.370;2023-10-31T01:28:51;13.40;97.50
20487;DHT22;10402;49.012;8.370;2023-10-31T01:31:17;13.40;97.60
20487;DHT22;10402;49.012;8.370;2023-10-31T01:33:42;13.40;97.60
20487;DHT22;10402;49.012;8.370;2023-10-31T01:36:08;13.40;97.40
20487;DHT22;10402;49.012;8.370;2023-10-31T01:38:35;13.30;97.40
20487;DHT22;10402;49.012;8.370;2023-10-31T01:41:01;13.30;97.30
20487;DHT22;10402;49.012;8.370;2023-10-31T01:43:34;13.30;97.10
20487;DHT22;10402;49.012;8.370;2023-10-31T01:46:00;13.30;97.30
20487;DHT22;10402;49.012;8.370;2023-10-31T01:48:29;13.30;97.30
20487;DHT22;10402;49.012;8.370;2023-10-31T01:50:55;13.30;97.10
20487;DHT22;10402;49.012;8.370;2023-10-31T01:53:22;13.30;96.90
20487;DHT22;10402;49.012;8.370;2023-10-31T01:55:49;13.30;96.80
20487;DHT22;10402;49.012;8.370;2023-10-31T01:58:15;13.30;96.80
20487;DHT22;10402;49.012;8.370;2023-10-31T02:00:41;13.20;96.80
20487;DHT22;10402;49.012;8.370;2023-10-31T02:03:08;13.20;96.70
20487;DHT22;10402;49.012;8.370;2023-10-31T02:05:34;13.20;96.70
20487;DHT22;10402;49.012;8.370;2023-10-31T02:08:01;13.20;96.70
20487;DHT22;10402;49.012;8.370;2023-10-31T02:10:26;13.20;96.70
20487;DHT22;10402;49.012;8.370;2023-10-31T02:12:52;13.10;96.70
20487;DHT22;10402;49.012;8.370;2023-10-31T02:15:17;13.10;96.70
20487;DHT22;10402;49.012;8.370;2023-10-31T02:17:43;13.10;96.70
20487;DHT22;10402;49.012;8.370;2023-10-31T02:20:09;13.10;96.80
20487;DHT22;10402;49.012;8.370;2023-10-31T02:22:35;13.00;96.80
20487;DHT22;10402;49.012;8.370;2023-10-31T02:25:00;13.00;96.80
20487;DHT22;10402;49.012;8.370;2023-10-31T02:27:26;13.00;96.80
20487;DHT22;10402;49.012;8.370;2023-10-31T02:29:51;13.00;96.70
20487;DHT22;10402;49.012;8.370;2023-10-31T02:32:17;13.00;96.70
20487;DHT22;10402;49.012;8.370;2023-10-31T02:34:44;13.00;96.70
20487;DHT22;10402;49.012;8.370;2023-10-31T02:37:10;13.00;96.80
20487;DHT22;10402;49.012;8.370;2023-10-31T02:39:36;13.00;96.80
20487;DHT22;10402;49.012;8.370;2023-10-31T02:42:02;13.00;96.80
20487;DHT22;10402;49.012;8.370;2023-10-31T02:44:28;13.00;96.90
20487;DHT22;10402;49.012;8.370;2023-10-31T02:46:53;13.00;96.90
20487;DHT22;10402;49.012;8.370;2023-10-31T02:49:19;13.00;96.90
20487;DHT22;10402;49.012;8.370;2023-10-31T02:51:44;13.00;96.90
20487;DHT22;10402;49.012;8.370;2023-10-31T02:54:10;13.00;97.00
20487;DHT22;10402;49.012;8.370;2023-10-31T02:56:35;13.00;96.90
20487;DHT22;10402;49.012;8.370;2023-10-31T02:59:01;13.00;96.90
20487;DHT22;10402;49.012;8.370;2023-10-31T03:01:29;13.00;96.90
20487;DHT22;10402;49.012;8.370;2023-10-31T03:03:55;13.00;96.80
20487;DHT22;10402;49.012;8.370;2023-10-31T03:06:21;13.00;96.80
20487;DHT22;10402;49.012;8.370;2023-10-31T03:08:47;13.00;96.80
20487;DHT22;10402;49.012;8.370;2023-10-31T03:11:25;13.00;96.80
20487;DHT22;10402;49.012;8.370;2023-10-31T03:13:51;13.10;96.70
20487;DHT22;10402;49.012;8.370;2023-10-31T03:16:18;13.00;96.70
20487;DHT22;10402;49.012;8.370;2023-10-31T03:18:45;13.10;96.80
20487;DHT22;10402;49.012;8.370;2023-10-31T03:21:11;13.10;96.80
20487;DHT22;10402;49.012;8.370;2023-10-31T03:23:36;13.10;96.80
20487;DHT22;10402;49.012;8.370;2023-10-31T03:26:02;13.10;96.70
20487;DHT22;10402;49.012;8.370;2023-10-31T03:28:27;13.10;96.70
20487;DHT22;10402;49.012;8.370;2023-10-31T03:30:53;13.10;96.70
20487;DHT22;10402;49.012;8.370;2023-10-31T03:33:18;13.10;96.70
20487;DHT22;10402;49.012;8.370;2023-10-31T03:35:44;13.10;96.70
20487;DHT22;10402;49.012;8.370;2023-10-31T03:38:10;13.10;96.50
20487;DHT22;10402;49.012;8.370;2023-10-31T03:40:36;13.10;96.60
20487;DHT22;10402;49.012;8.370;2023-10-31T03:43:02;13.10;96.70
20487;DHT22;10402;49.012;8.370;2023-10-31T03:45:27;13.10;96.60
20487;DHT22;10402;49.012;8.370;2023-10-31T03:47:53;13.10;96.70
20487;DHT22;10402;49.012;8.370;2023-10-31T03:50:18;13.10;96.50
20487;DHT22;10402;49.012;8.370;2023-10-31T03:52:44;13.10;96.40
20487;DHT22;10402;49.012;8.370;2023-10-31T03:55:09;13.20;96.40
20487;DHT22;10402;49.012;8.370;2023-10-31T03:57:35;13.10;96.20
20487;DHT22;10402;49.012;8.370;2023-10-31T04:00:00;13.20;96.20
20487;DHT22;10402;49.012;8.370;2023-10-31T04:02:26;13.10;96.20
20487;DHT22;10402;49.012;8.370;2023-10-31T04:04:51;13.10;96.20
20487;DHT22;10402;49.012;8.370;2023-10-31T04:07:17;13.10;96.10
20487;DHT22;10402;49.012;8.370;2023-10-31T04:09:42;13.00;96.00
20487;DHT22;10402;49.012;8.370;2023-10-31T04:12:09;13.00;95.90
20487;DHT22;10402;49.012;8.370;2023-10-31T04:14:34;13.00;95.90
20487;DHT22;10402;49.012;8.370;2023-10-31T04:17:00;13.00;95.90
20487;DHT22;10402;49.012;8.370;2023-10-31T04:19:25;13.00;95.90
20487;DHT22;10402;49.012;8.370;2023-10-31T04:21:53;13.00;95.80
20487;DHT22;10402;49.012;8.370;2023-10-31T04:24:20;13.00;95.70
20487;DHT22;10402;49.012;8.370;2023-10-31T04:26:45;13.00;95.60
20487;DHT22;10402;49.012;8.370;2023-10-31T04:29:11;13.00;95.70
20487;DHT22;10402;49.012;8.370;2023-10-31T04:31:36;13.00;95.70
20487;DHT22;10402;49.012;8.370;2023-10-31T04:34:02;13.00;95.60
20487;DHT22;10402;49.012;8.370;2023-10-31T04:36:28;13.00;95.60
20487;DHT22;10402;49.012;8.370;2023-10-31T04:38:53;13.00;95.50
20487;DHT22;10402;49.012;8.370;2023-10-31T04:41:19;13.00;95.40
20487;DHT22;10402;49.012;8.370;2023-10-31T04:43:45;13.10;95.50
20487;DHT22;10402;49.012;8.370;2023-10-31T04:46:11;13.10;95.30
20487;DHT22;10402;49.012;8.370;2023-10-31T04:48:37;13.10;95.30
20487;DHT22;10402;49.012;8.370;2023-10-31T04:51:02;13.10;95.40
20487;DHT22;10402;49.012;8.370;2023-10-31T04:53:28;13.10;95.40
20487;DHT22;10402;49.012;8.370;2023-10-31T04:55:54;13.10;95.40
20487;DHT22;10402;49.012;8.370;2023-10-31T04:58:20;13.10;95.60
20487;DHT22;10402;49.012;8.370;2023-10-31T05:00:46;13.00;95.20
20487;DHT22;10402;49.012;8.370;2023-10-31T05:03:12;13.10;95.30
20487;DHT22;10402;49.012;8.370;2023-10-31T05:05:38;13.00;95.50
20487;DHT22;10402;49.012;8.370;2023-10-31T05:08:03;13.10;95.20
20487;DHT22;10402;49.012;8.370;2023-10-31T05:10:29;13.10;95.30
20487;DHT22;10402;49.012;8.370;2023-10-31T05:12:54;13.00;95.10
20487;DHT22;10402;49.012;8.370;2023-10-31T05:15:20;13.00;95.30
20487;DHT22;10402;49.012;8.370;2023-10-31T05:17:45;13.00;95.00
20487;DHT22;10402;49.012;8.370;2023-10-31T05:20:11;13.00;95.10
20487;DHT22;10402;49.012;8.370;2023-10-31T05:22:37;13.00;95.10
20487;DHT22;10402;49.012;8.370;2023-10-31T05:25:03;13.00;95.00
20487;DHT22;10402;49.012;8.370;2023-10-31T05:27:29;13.00;95.10
20487;DHT22;10402;49.012;8.370;2023-10-31T05:29:54;13.00;95.20
20487;DHT22;10402;49.012;8.370;2023-10-31T05:32:20;12.90;95.30
20487;DHT22;10402;49.012;8.370;2023-10-31T05:34:45;12.90;95.20
20487;DHT22;10402;49.012;8.370;2023-10-31T05:37:11;12.90;95.20
20487;DHT22;10402;49.012;8.370;2023-10-31T05:39:36;12.90;95.20
20487;DHT22;10402;49.012;8.370;2023-10-31T05:42:02;13.00;95.30
20487;DHT22;10402;49.012;8.370;2023-10-31T05:44:28;13.00;95.20
20487;DHT22;10402;49.012;8.370;2023-10-31T05:46:54;13.00;95.20
20487;DHT22;10402;49.012;8.370;2023-10-31T05:49:19;13.00;95.20
20487;DHT22;10402;49.012;8.370;2023-10-31T05:51:53;12.90;95.10
20487;DHT22;10402;49.012;8.370;2023-10-31T05:54:18;12.90;95.20
20487;DHT22;10402;49.012;8.370;2023-10-31T05:56:44;12.90;95.20
20487;DHT22;10402;49.012;8.370;2023-10-31T05:59:11;12.90;95.10
20487;DHT22;10402;49.012;8.370;2023-10-31T06:01:36;12.90;95.20
20487;DHT22;10402;49.012;8.370;2023-10-31T06:04:02;12.90;95.10
20487;DHT22;10402;49.012;8.370;2023-10-31T06:06:29;12.90;95.20
20487;DHT22;10402;49.012;8.370;2023-10-31T06:08:54;12.90;95.20
20487;DHT22;10402;49.012;8.370;2023-10-31T06:11:20;12.90;95.20
20487;DHT22;10402;49.012;8.370;2023-10-31T06:13:45;12.90;95.20
20487;DHT22;10402;49.012;8.370;2023-10-31T06:16:13;12.90;95.20
20487;DHT22;10402;49.012;8.370;2023-10-31T06:18:38;12.90;95.20
20487;DHT22;10402;49.012;8.370;2023-10-31T06:21:05;12.80;95.20
20487;DHT22;10402;49.012;8.370;2023-10-31T06:23:31;12.90;95.20
20487;DHT22;10402;49.012;8.370;2023-10-31T06:25:56;12.90;95.20
20487;DHT22;10402;49.012;8.370;2023-10-31T06:28:23;12.90;95.30
20487;DHT22;10402;49.012;8.370;2023-10-31T06:30:48;12.90;95.30
20487;DHT22;10402;49.012;8.370;2023-10-31T06:33:14;12.90;95.30
20487;DHT22;10402;49.012;8.370;2023-10-31T06:35:39;12.80;95.40
20487;DHT22;10402;49.012;8.370;2023-10-31T06:38:05;12.80;95.50
20487;DHT22;10402;49.012;8.370;2023-10-31T06:40:30;12.80;95.60
20487;DHT22;10402;49.012;8.370;2023-10-31T06:42:56;12.80;95.70
20487;DHT22;10402;49.012;8.370;2023-10-31T06:45:21;12.80;95.80
20487;DHT22;10402;49.012;8.370;2023-10-31T06:47:47;12.80;95.90
20487;DHT22;10402;49.012;8.370;2023-10-31T06:50:13;12.90;96.00
20487;DHT22;10402;49.012;8.370;2023-10-31T06:52:38;12.90;96.10
20487;DHT22;10402;49.012;8.370;2023-10-31T06:55:04;12.80;96.10
20487;DHT22;10402;49.012;8.370;2023-10-31T06:57:30;12.80;96.20
20487;DHT22;10402;49.012;8.370;2023-10-31T06:59:56;12.80;96.30
20487;DHT22;10402;49.012;8.370;2023-10-31T07:02:21;12.80;96.40
20487;DHT22;10402;49.012;8.370;2023-10-31T07:04:47;12.80;96.30
20487;DHT22;10402;49.012;8.370;2023-10-31T07:07:12;12.80;96.30
20487;DHT22;10402;49.012;8.370;2023-10-31T07:09:38;12.70;96.60
20487;DHT22;10402;49.012;8.370;2023-10-31T07:12:04;12.80;96.30
20487;DHT22;10402;49.012;8.370;2023-10-31T07:14:29;12.80;96.30
20487;DHT22;10402;49.012;8.370;2023-10-31T07:16:56;12.80;96.30
20487;DHT22;10402;49.012;8.370;2023-10-31T07:19:22;12.80;96.30
20487;DHT22;10402;49.012;8.370;2023-10-31T07:21:47;12.80;96.30
20487;DHT22;10402;49.012;8.370;2023-10-31T07:24:13;12.80;96.40
20487;DHT22;10402;49.012;8.370;2023-10-31T07:26:38;12.80;96.40
20487;DHT22;10402;49.012;8.370;2023-10-31T07:29:05;12.80;96.40
20487;DHT22;10402;49.012;8.370;2023-10-31T07:31:30;12.80;96.40
20487;DHT22;10402;49.012;8.370;2023-10-31T07:33:56;12.80;96.40
20487;DHT22;10402;49.012;8.370;2023-10-31T07:36:21;12.80;96.40
20487;DHT22;10402;49.012;8.370;2023-10-31T07:38:47;12.80;96.40
20487;DHT22;10402;49.012;8.370;2023-10-31T07:41:13;12.80;96.40
20487;DHT22;10402;49.012;8.370;2023-10-31T07:43:38;12.80;96.40
20487;DHT22;10402;49.012;8.370;2023-10-31T07:46:04;12.90;96.40
20487;DHT22;10402;49.012;8.370;2023-10-31T07:48:30;12.90;96.40
20487;DHT22;10402;49.012;8.370;2023-10-31T07:50:55;12.90;96.40
20487;DHT22;10402;49.012;8.370;2023-10-31T07:53:21;12.90;96.40
20487;DHT22;10402;49.012;8.370;2023-10-31T07:55:46;13.00;96.40
20487;DHT22;10402;49.012;8.370;2023-10-31T07:58:12;13.00;96.40
20487;DHT22;10402;49.012;8.370;2023-10-31T08:00:38;13.00;96.30
20487;DHT22;10402;49.012;8.370;2023-10-31T08:03:04;13.00;96.30
20487;DHT22;10402;49.012;8.370;2023-10-31T08:05:30;13.00;96.30
20487;DHT22;10402;49.012;8.370;2023-10-31T08:07:56;13.10;96.30
20487;DHT22;10402;49.012;8.370;2023-10-31T08:10:21;13.10;96.20
20487;DHT22;10402;49.012;8.370;2023-10-31T08:12:47;13.10;96.00
20487;DHT22;10402;49.012;8.370;2023-10-31T08:15:12;13.10;96.10
20487;DHT22;10402;49.012;8.370;2023-10-31T08:17:39;13.10;96.00
20487;DHT22;10402;49.012;8.370;2023-10-31T08:20:05;13.20;96.10
20487;DHT22;10402;49.012;8.370;2023-10-31T08:22:30;13.20;96.10
20487;DHT22;10402;49.012;8.370;2023-10-31T08:24:56;13.20;96.00
20487;DHT22;10402;49.012;8.370;2023-10-31T08:27:21;13.20;96.00
20487;DHT22;10402;49.012;8.370;2023-10-31T08:29:47;13.20;96.00
20487;DHT22;10402;49.012;8.370;2023-10-31T08:32:13;13.30;96.00
20487;DHT22;10402;49.012;8.370;2023-10-31T08:34:38;13.30;96.00
20487;DHT22;10402;49.012;8.370;2023-10-31T08:37:04;13.30;96.00
20487;DHT22;10402;49.012;8.370;2023-10-31T08:39:29;13.40;96.00
20487;DHT22;10402;49.012;8.370;2023-10-31T08:41:57;13.40;96.00
20487;DHT22;10402;49.012;8.370;2023-10-31T08:44:23;13.40;96.00
20487;DHT22;10402;49.012;8.370;2023-10-31T08:46:49;13.50;96.10
20487;DHT22;10402;49.012;8.370;2023-10-31T08:49:15;13.50;95.90
20487;DHT22;10402;49.012;8.370;2023-10-31T08:51:41;13.50;96.00
20487;DHT22;10402;49.012;8.370;2023-10-31T08:54:07;13.50;95.90
20487;DHT22;10402;49.012;8.370;2023-10-31T08:56:34;13.50;95.70
20487;DHT22;10402;49.012;8.370;2023-10-31T08:58:59;13.50;95.70
20487;DHT22;10402;49.012;8.370;2023-10-31T09:01:26;13.50;95.70
20487;DHT22;10402;49.012;8.370;2023-10-31T09:03:52;13.60;95.60
20487;DHT22;10402;49.012;8.370;2023-10-31T09:06:18;13.60;95.50
20487;DHT22;10402;49.012;8.370;2023-10-31T09:08:43;13.60;95.40
20487;DHT22;10402;49.012;8.370;2023-10-31T09:11:09;13.50;95.30
20487;DHT22;10402;49.012;8.370;2023-10-31T09:13:34;13.60;95.50
20487;DHT22;10402;49.012;8.370;2023-10-31T09:16:00;13.60;95.50
20487;DHT22;10402;49.012;8.370;2023-10-31T09:18:26;13.70;95.50
20487;DHT22;10402;49.012;8.370;2023-10-31T09:20:51;13.70;95.30
20487;DHT22;10402;49.012;8.370;2023-10-31T09:23:17;13.70;95.10
20487;DHT22;10402;49.012;8.370;2023-10-31T09:25:46;13.70;95.10
20487;DHT22;10402;49.012;8.370;2023-10-31T09:28:11;13.60;95.00
20487;DHT22;10402;49.012;8.370;2023-10-31T09:30:37;13.70;95.00
20487;DHT22;10402;49.012;8.370;2023-10-31T09:33:03;13.70;95.00
20487;DHT22;10402;49.012;8.370;2023-10-31T09:35:28;13.70;95.00
20487;DHT22;10402;49.012;8.370;2023-10-31T09:37:54;13.70;95.10
20487;DHT22;10402;49.012;8.370;2023-10-31T09:40:20;13.70;95.00
20487;DHT22;10402;49.012;8.370;2023-10-31T09:42:47;13.70;95.00
20487;DHT22;10402;49.012;8.370;2023-10-31T09:45:13;13.70;94.90
20487;DHT22;10402;49.012;8.370;2023-10-31T09:47:39;13.70;94.90
20487;DHT22;10402;49.012;8.370;2023-10-31T09:50:06;13.80;94.90
20487;DHT22;10402;49.012;8.370;2023-10-31T09:52:34;13.80;95.00
20487;DHT22;10402;49.012;8.370;2023-10-31T09:55:01;13.90;94.90
20487;DHT22;10402;49.012;8.370;2023-10-31T09:57:27;13.90;94.80
20487;DHT22;10402;49.012;8.370;2023-10-31T09:59:53;13.90;94.80
20487;DHT22;10402;49.012;8.370;2023-10-31T10:02:19;13.90;94.80
20487;DHT22;10402;49.012;8.370;2023-10-31T10:04:44;13.90;94.80
20487;DHT22;10402;49.012;8.370;2023-10-31T10:07:16;13.90;94.80
20487;DHT22;10402;49.012;8.370;2023-10-31T10:09:44;13.90;94.50
20487;DHT22;10402;49.012;8.370;2023-10-31T10:12:12;13.90;94.50
20487;DHT22;10402;49.012;8.370;2023-10-31T10:14:39;13.90;94.50
20487;DHT22;10402;49.012;8.370;2023-10-31T10:17:22;13.90;94.50
20487;DHT22;10402;49.012;8.370;2023-10-31T10:19:48;13.90;94.70
20487;DHT22;10402;49.012;8.370;2023-10-31T10:22:13;14.00;94.80
20487;DHT22;10402;49.012;8.370;2023-10-31T10:24:41;14.00;94.60
20487;DHT22;10402;49.012;8.370;2023-10-31T10:27:07;14.00;94.50
20487;DHT22;10402;49.012;8.370;2023-10-31T10:29:34;14.00;94.60
20487;DHT22;10402;49.012;8.370;2023-10-31T10:32:00;14.00;94.70
20487;DHT22;10402;49.012;8.370;2023-10-31T10:34:25;14.00;94.80
20487;DHT22;10402;49.012;8.370;2023-10-31T10:36:51;14.00;94.70
20487;DHT22;10402;49.012;8.370;2023-10-31T10:39:20;14.00;94.50
20487;DHT22;10402;49.012;8.370;2023-10-31T10:41:53;14.00;94.60
20487;DHT22;10402;49.012;8.370;2023-10-31T10:44:30;14.00;94.50
20487;DHT22;10402;49.012;8.370;2023-10-31T10:46:56;14.00;94.50
20487;DHT22;10402;49.012;8.370;2023-10-31T10:49:24;14.10;94.60
20487;DHT22;10402;49.012;8.370;2023-10-31T10:51:53;14.10;94.60
20487;DHT22;10402;49.012;8.370;2023-10-31T10:54:34;14.10;94.60
20487;DHT22;10402;49.012;8.370;2023-10-31T10:57:14;14.10;94.60
20487;DHT22;10402;49.012;8.370;2023-10-31T10:59:42;14.10;94.60
20487;DHT22;10402;49.012;8.370;2023-10-31T11:02:10;14.10;94.60
20487;DHT22;10402;49.012;8.370;2023-10-31T11:04:37;14.10;94.60
20487;DHT22;10402;49.012;8.370;2023-10-31T11:07:03;14.10;94.80
20487;DHT22;10402;49.012;8.370;2023-10-31T11:09:31;14.20;94.90
20487;DHT22;10402;49.012;8.370;2023-10-31T11:11:57;14.10;94.90
20487;DHT22;10402;49.012;8.370;2023-10-31T11:14:25;14.10;94.90
20487;DHT22;10402;49.012;8.370;2023-10-31T11:16:52;14.10;95.00
20487;DHT22;10402;49.012;8.370;2023-10-31T11:19:19;14.20;95.00
20487;DHT22;10402;49.012;8.370;2023-10-31T11:22:00;14.20;95.00
20487;DHT22;10402;49.012;8.370;2023-10-31T11:24:48;14.20;95.00
20487;DHT22;10402;49.012;8.370;2023-10-31T11:27:14;14.30;95.00
20487;DHT22;10402;49.012;8.370;2023-10-31T11:29:39;14.30;94.90
20487;DHT22;10402;49.012;8.370;2023-10-31T11:32:11;14.30;94.70
20487;DHT22;10402;49.012;8.370;2023-10-31T11:34:42;14.30;94.70
20487;DHT22;10402;49.012;8.370;2023-10-31T11:37:24;14.30;94.70
20487;DHT22;10402;49.012;8.370;2023-10-31T11:42:44;14.40;94.70
20487;DHT22;10402;49.012;8.370;2023-10-31T11:45:12;14.40;94.60
20487;DHT22;10402;49.012;8.370;2023-10-31T11:47:51;14.40;94.50
20487;DHT22;10402;49.012;8.370;2023-10-31T11:50:17;14.40;94.50
20487;DHT22;10402;49.012;8.370;2023-10-31T11:52:43;14.40;94.60
20487;DHT22;10402;49.012;8.370;2023-10-31T11:55:10;14.40;94.60
20487;DHT22;10402;49.012;8.370;2023-10-31T11:57:36;14.30;94.70
20487;DHT22;10402;49.012;8.370;2023-10-31T12:00:03;14.40;94.70
20487;DHT22;10402;49.012;8.370;2023-10-31T12:02:29;14.40;94.70
20487;DHT22;10402;49.012;8.370;2023-10-31T12:05:11;14.40;94.70
20487;DHT22;10402;49.012;8.370;2023-10-31T12:07:44;14.50;94.70
20487;DHT22;10402;49.012;8.370;2023-10-31T12:10:10;14.40;94.70
20487;DHT22;10402;49.012;8.370;2023-10-31T12:12:36;14.40;94.70
20487;DHT22;10402;49.012;8.370;2023-10-31T12:15:08;14.40;94.70
20487;DHT22;10402;49.012;8.370;2023-10-31T12:17:34;14.50;94.70
20487;DHT22;10402;49.012;8.370;2023-10-31T12:20:04;14.40;94.70
20487;DHT22;10402;49.012;8.370;2023-10-31T12:22:30;14.50;94.70
20487;DHT22;10402;49.012;8.370;2023-10-31T12:25:03;14.40;94.70
20487;DHT22;10402;49.012;8.370;2023-10-31T12:27:45;14.40;94.70
20487;DHT22;10402;49.012;8.370;2023-10-31T12:30:13;14.40;94.70
20487;DHT22;10402;49.012;8.370;2023-10-31T12:32:42;14.30;94.70
20487;DHT22;10402;49.012;8.370;2023-10-31T12:35:12;14.30;94.90
20487;DHT22;10402;49.012;8.370;2023-10-31T12:37:46;14.30;95.10
20487;DHT22;10402;49.012;8.370;2023-10-31T12:40:17;14.40;95.20
20487;DHT22;10402;49.012;8.370;2023-10-31T12:42:44;14.40;95.30
20487;DHT22;10402;49.012;8.370;2023-10-31T12:45:11;14.40;95.30
20487;DHT22;10402;49.012;8.370;2023-10-31T12:47:37;14.50;95.40
20487;DHT22;10402;49.012;8.370;2023-10-31T12:50:21;14.50;95.40
20487;DHT22;10402;49.012;8.370;2023-10-31T12:52:51;14.50;95.50
20487;DHT22;10402;49.012;8.370;2023-10-31T12:55:19;14.50;95.50
20487;DHT22;10402;49.012;8.370;2023-10-31T12:57:45;14.60;95.60
20487;DHT22;10402;49.012;8.370;2023-10-31T13:00:12;14.60;95.50
20487;DHT22;10402;49.012;8.370;2023-10-31T13:02:42;14.60;95.50
20487;DHT22;10402;49.012;8.370;2023-10-31T13:05:12;14.70;95.50
20487;DHT22;10402;49.012;8.370;2023-10-31T13:07:38;14.70;95.50
20487;DHT22;10402;49.012;8.370;2023-10-31T13:10:08;14.80;95.50
20487;DHT22;10402;49.012;8.370;2023-10-31T13:12:35;14.80;95.50
20487;DHT22;10402;49.012;8.370;2023-10-31T13:15:00;14.80;95.40
20487;DHT22;10402;49.012;8.370;2023-10-31T13:17:26;14.80;95.40
20487;DHT22;10402;49.012;8.370;2023-10-31T13:19:53;14.80;95.30
20487;DHT22;10402;49.012;8.370;2023-10-31T13:22:18;14.80;95.30
20487;DHT22;10402;49.012;8.370;2023-10-31T13:24:44;14.80;95.40
20487;DHT22;10402;49.012;8.370;2023-10-31T13:27:11;14.80;95.30
20487;DHT22;10402;49.012;8.370;2023-10-31T13:29:41;14.80;95.40
20487;DHT22;10402;49.012;8.370;2023-10-31T13:32:06;14.80;95.40
20487;DHT22;10402;49.012;8.370;2023-10-31T13:34:32;14.90;95.40
20487;DHT22;10402;49.012;8.370;2023-10-31T13:36:58;14.90;95.30
20487;DHT22;10402;49.012;8.370;2023-10-31T13:39:24;15.00;95.30
20487;DHT22;10402;49.012;8.370;2023-10-31T13:41:49;14.90;95.10
20487;DHT22;10402;49.012;8.370;2023-10-31T13:44:16;14.90;95.10
20487;DHT22;10402;49.012;8.370;2023-10-31T13:46:41;15.00;95.10
20487;DHT22;10402;49.012;8.370;2023-10-31T13:49:07;14.90;95.00
20487;DHT22;10402;49.012;8.370;2023-10-31T13:51:33;14.90;94.90
20487;DHT22;10402;49.012;8.370;2023-10-31T13:53:58;14.90;94.90
20487;DHT22;10402;49.012;8.370;2023-10-31T13:56:24;14.90;95.00
20487;DHT22;10402;49.012;8.370;2023-10-31T13:58:49;15.00;95.00
20487;DHT22;10402;49.012;8.370;2023-10-31T14:01:15;15.00;95.00
20487;DHT22;10402;49.012;8.370;2023-10-31T14:03:41;15.10;95.00
20487;DHT22;10402;49.012;8.370;2023-10-31T14:06:06;15.10;95.00
20487;DHT22;10402;49.012;8.370;2023-10-31T14:08:32;15.10;94.90
20487;DHT22;10402;49.012;8.370;2023-10-31T14:10:57;15.10;94.90
20487;DHT22;10402;49.012;8.370;2023-10-31T14:13:23;15.10;94.90
20487;DHT22;10402;49.012;8.370;2023-10-31T14:15:49;15.10;94.90
20487;DHT22;10402;49.012;8.370;2023-10-31T14:18:14;15.00;94.90
20487;DHT22;10402;49.012;8.370;2023-10-31T14:20:41;15.00;95.00
20487;DHT22;10402;49.012;8.370;2023-10-31T14:23:07;15.00;95.10
20487;DHT22;10402;49.012;8.370;2023-10-31T14:25:32;14.90;95.40
20487;DHT22;10402;49.012;8.370;2023-10-31T14:27:58;14.90;95.50
20487;DHT22;10402;49.012;8.370;2023-10-31T14:30:23;14.90;95.70
20487;DHT22;10402;49.012;8.370;2023-10-31T14:32:49;14.90;95.80
20487;DHT22;10402;49.012;8.370;2023-10-31T14:35:14;14.90;95.80
20487;DHT22;10402;49.012;8.370;2023-10-31T14:37:40;14.90;95.90
20487;DHT22;10402;49.012;8.370;2023-10-31T14:40:06;14.90;95.90
20487;DHT22;10402;49.012;8.370;2023-10-31T14:42:32;14.80;95.90
20487;DHT22;10402;49.012;8.370;2023-10-31T14:44:58;14.80;95.90
20487;DHT22;10402;49.012;8.370;2023-10-31T14:47:24;14.80;96.00
20487;DHT22;10402;49.012;8.370;2023-10-31T14:49:50;14.80;96.00
20487;DHT22;10402;49.012;8.370;2023-10-31T14:52:16;14.70;96.00
20487;DHT22;10402;49.012;8.370;2023-10-31T14:54:42;14.70;96.10
20487;DHT22;10402;49.012;8.370;2023-10-31T14:57:07;14.70;96.00
20487;DHT22;10402;49.012;8.370;2023-10-31T14:59:33;14.70;96.50
20487;DHT22;10402;49.012;8.370;2023-10-31T15:01:59;14.70;96.20
20487;DHT22;10402;49.012;8.370;2023-10-31T15:04:24;14.70;96.20
20487;DHT22;10402;49.012;8.370;2023-10-31T15:06:50;14.60;96.20
20487;DHT22;10402;49.012;8.370;2023-10-31T15:09:15;14.60;96.30
20487;DHT22;10402;49.012;8.370;2023-10-31T15:11:41;14.60;96.30
20487;DHT22;10402;49.012;8.370;2023-10-31T15:14:07;14.60;96.40
20487;DHT22;10402;49.012;8.370;2023-10-31T15:16:32;14.60;96.40
20487;DHT22;10402;49.012;8.370;2023-10-31T15:18:58;14.60;96.40
20487;DHT22;10402;49.012;8.370;2023-10-31T15:21:24;14.50;96.40
20487;DHT22;10402;49.012;8.370;2023-10-31T15:23:50;14.50;96.40
20487;DHT22;10402;49.012;8.370;2023-10-31T15:26:15;14.50;96.40
20487;DHT22;10402;49.012;8.370;2023-10-31T15:28:42;14.50;96.30